Riddle Hill, Illinois
Current Conditions -  °F | °C
As of 3:52 PM on Sunday 21 Dec 2014 (Local Time) from KSPI Reporting Station
Overcast Overcast  
Wind Chill: 32°   Ceiling: 3500
Heat Index: 40°   Visibility: 10mi
Dew Point: 32°   Wind: 14mph
Humidity: 73%   Direction: 140°SE
Pressure: 30.05"   Gusts: NA
Location:  39.854°N, 89.6295°W
Report Text: KSPI 212152Z 14012KT 10SM OVC035 04/00 A3005 RMK AO2 SLP179 T00440000
Loading
Personal Weather Stations






























Interactive Weather Map New forecast layout! Learn more

10-Day Weather Forecast

Advertisements
Track Severe Weather on mobile